createdAt,value
2023-01-10T07:11:29.057Z,3.50
2023-01-10T07:13:32.182Z,2.00
2023-01-10T07:15:35.614Z,3.00
2023-01-10T07:17:39.182Z,4.00
2023-01-10T07:19:43.116Z,3.00
2023-01-10T07:21:47.321Z,1.75
2023-01-10T07:23:51.146Z,3.00
2023-01-10T07:25:54.622Z,3.00
2023-01-10T07:27:59.049Z,3.00
2023-01-10T07:30:02.155Z,3.00
2023-01-10T07:32:05.399Z,2.00
2023-01-10T07:34:10.019Z,8.75
2023-01-10T07:36:14.027Z,3.25
2023-01-10T07:38:17.309Z,4.67
2023-01-10T07:40:20.508Z,5.00
2023-01-10T07:42:23.611Z,4.00
2023-01-10T07:44:28.163Z,6.00
2023-01-10T07:46:31.489Z,4.75
2023-01-10T07:48:34.506Z,4.00
2023-01-10T07:50:38.706Z,2.00
2023-01-10T07:52:41.887Z,3.75
2023-01-10T07:54:44.775Z,5.00
2023-01-10T07:56:48.264Z,8.75
2023-01-10T07:58:51.462Z,2.00
2023-01-10T08:00:58.670Z,4.50
2023-01-10T08:03:01.864Z,2.00
2023-01-10T08:05:05.236Z,2.75
2023-01-10T08:07:08.509Z,7.75
2023-01-10T08:09:11.712Z,3.50
2023-01-10T08:11:15.809Z,2.00
2023-01-10T08:13:19.478Z,4.50
2023-01-10T08:15:23.261Z,5.00
2023-01-10T08:17:27.652Z,2.67
2023-01-10T08:19:30.825Z,3.00
2023-01-10T08:21:34.045Z,3.75
2023-01-10T08:23:37.286Z,3.00
2023-01-10T08:25:40.365Z,3.00
2023-01-10T08:27:43.689Z,3.25
2023-01-10T08:29:46.859Z,3.00
2023-01-10T08:31:50.179Z,3.00
2023-01-10T08:33:54.895Z,2.75
2023-01-10T08:35:58.395Z,3.00
2023-01-10T08:38:01.892Z,3.50
2023-01-10T08:40:06.682Z,3.25
2023-01-10T08:42:09.902Z,2.50
2023-01-10T08:44:15.432Z,5.00
2023-01-10T08:46:18.974Z,2.00
2023-01-10T08:48:22.189Z,3.00
2023-01-10T08:50:27.183Z,3.00
2023-01-10T08:52:30.830Z,4.00
2023-01-10T08:54:34.223Z,4.00
2023-01-10T08:56:40.293Z,4.75
2023-01-10T08:58:43.799Z,4.00
2023-01-10T09:00:46.968Z,5.25
2023-01-10T09:02:50.270Z,5.00
2023-01-10T09:04:53.387Z,2.75
2023-01-10T09:06:57.860Z,4.75
2023-01-10T09:09:00.790Z,3.25
2023-01-10T09:11:04.656Z,2.75
2023-01-10T09:13:07.834Z,2.67
2023-01-10T09:15:12.939Z,4.00
2023-01-10T09:17:16.341Z,4.00
2023-01-10T09:19:19.332Z,3.00
2023-01-10T09:21:22.519Z,3.00
2023-01-10T09:23:27.338Z,3.00
2023-01-10T09:25:31.668Z,3.00
2023-01-10T09:27:35.081Z,2.25
2023-01-10T09:29:38.570Z,4.75
2023-01-10T09:31:41.809Z,4.00
2023-01-10T09:33:47.740Z,4.00
2023-01-10T09:35:50.918Z,2.00
2023-01-10T09:37:56.112Z,3.00
2023-01-10T09:40:00.627Z,14.75
2023-01-10T09:42:20.764Z,3.00
2023-01-10T09:44:38.340Z,4.00
2023-01-10T09:46:51.787Z,3.00
2023-01-10T09:49:00.579Z,4.00
2023-01-10T09:51:17.891Z,6.75
2023-01-10T09:53:25.227Z,5.00
2023-01-10T09:55:32.773Z,2.25
2023-01-10T09:57:36.416Z,3.25
2023-01-10T09:59:43.067Z,4.00
2023-01-10T10:01:48.150Z,1.75
2023-01-10T10:03:59.731Z,3.00
2023-01-10T10:06:11.751Z,2.00
2023-01-10T10:08:20.914Z,3.50
2023-01-10T10:10:26.862Z,4.50
2023-01-10T10:12:40.373Z,3.00
2023-01-10T10:14:57.602Z,3.00
2023-01-10T10:17:14.490Z,2.50
2023-01-10T10:19:24.998Z,2.00
2023-01-10T10:21:36.641Z,3.00
2023-01-10T10:23:51.497Z,3.75
2023-01-10T10:26:05.753Z,2.00
2023-01-10T10:28:31.701Z,6.00
2023-01-10T10:30:48.953Z,2.75
2023-01-10T10:33:07.879Z,3.00
2023-01-10T10:35:16.657Z,3.00
2023-01-10T10:37:25.035Z,2.00
2023-01-10T10:39:35.721Z,4.25
2023-01-10T10:41:42.305Z,2.33
2023-01-10T10:43:49.185Z,2.25
2023-01-10T10:45:56.108Z,2.00
2023-01-10T10:48:04.645Z,4.25
2023-01-10T10:50:22.373Z,2.50
2023-01-10T10:52:27.685Z,2.75
2023-01-10T10:54:38.022Z,3.00
2023-01-10T10:56:42.641Z,6.25
2023-01-10T10:58:53.216Z,2.00
2023-01-10T11:00:57.114Z,2.50
2023-01-10T11:03:07.178Z,5.00
2023-01-10T11:05:19.438Z,4.00
2023-01-10T11:07:23.728Z,3.00
2023-01-10T11:09:31.312Z,2.00
2023-01-10T11:11:37.278Z,6.75
2023-01-10T11:13:48.345Z,4.00
2023-01-10T11:15:53.195Z,2.50
2023-01-10T11:18:06.405Z,2.50
2023-01-10T11:20:16.892Z,3.00
2023-01-10T11:22:20.355Z,3.00
2023-01-10T11:24:34.344Z,3.75
2023-01-10T11:26:40.346Z,4.00
2023-01-10T11:28:45.792Z,4.00
2023-01-10T11:30:52.470Z,3.00
2023-01-10T11:32:58.577Z,2.00
2023-01-10T11:35:03.707Z,3.00
2023-01-10T11:37:19.936Z,5.75
2023-01-10T11:39:23.338Z,3.00
2023-01-10T11:41:31.554Z,4.00
2023-01-10T11:43:36.167Z,4.75
2023-01-10T11:45:40.508Z,5.00
2023-01-10T11:47:48.477Z,2.00
2023-01-10T11:49:52.421Z,3.00
2023-01-10T11:52:00.783Z,3.00
2023-01-10T11:54:06.285Z,4.50
2023-01-10T11:56:12.805Z,3.00
2023-01-10T11:58:16.193Z,4.00
2023-01-10T12:00:19.973Z,3.75
2023-01-10T12:02:26.438Z,4.75
2023-01-10T12:04:35.531Z,3.00
2023-01-10T12:06:46.130Z,6.00
2023-01-10T12:08:49.872Z,2.00
2023-01-10T12:11:01.912Z,3.25
2023-01-10T12:13:16.206Z,3.50
2023-01-10T12:15:25.875Z,3.00
2023-01-10T12:17:32.593Z,9.75
2023-01-10T12:19:36.878Z,4.75
2023-01-10T12:21:42.025Z,3.00
2023-01-10T12:23:48.760Z,3.00
2023-01-10T12:26:03.666Z,3.00
2023-01-10T12:28:19.699Z,5.75
2023-01-10T12:30:35.519Z,6.50
2023-01-10T12:32:45.578Z,7.50
2023-01-10T12:34:54.444Z,6.75
2023-01-10T12:37:06.236Z,5.25
2023-01-10T12:39:16.788Z,3.00
2023-01-10T12:41:43.615Z,6.50
2023-01-10T12:44:06.463Z,2.75
2023-01-10T12:46:29.630Z,7.00
2023-01-10T12:48:47.669Z,9.00
2023-01-10T12:51:03.618Z,8.00
2023-01-10T12:53:12.804Z,2.00
2023-01-10T12:55:17.465Z,3.00
2023-01-10T12:57:28.138Z,3.00
2023-01-10T12:59:38.554Z,3.75
2023-01-10T13:01:44.132Z,4.75
2023-01-10T13:03:50.804Z,3.00
2023-01-10T13:05:57.987Z,2.00
2023-01-10T13:08:06.840Z,3.00
2023-01-10T13:10:16.005Z,4.25
2023-01-10T13:12:25.162Z,3.25
2023-01-10T13:14:33.285Z,2.00
2023-01-10T13:16:47.023Z,6.75
2023-01-10T13:19:02.492Z,4.33
2023-01-10T13:21:15.825Z,5.00
2023-01-10T13:23:31.201Z,5.00
2023-01-10T13:25:40.218Z,3.50
2023-01-10T13:27:43.760Z,5.50
2023-01-10T13:29:51.228Z,2.50
2023-01-10T13:31:58.647Z,3.00
2023-01-10T13:34:06.391Z,3.25
2023-01-10T13:36:15.025Z,5.00
2023-01-10T13:38:21.519Z,5.25
2023-01-10T13:40:28.178Z,4.00
2023-01-10T13:42:51.609Z,4.50
2023-01-10T13:45:17.054Z,3.75
2023-01-10T13:48:05.915Z,3.50
2023-01-10T13:50:46.803Z,3.00
2023-01-10T13:52:51.903Z,3.00
2023-01-10T13:54:58.639Z,3.50
2023-01-10T13:57:01.742Z,3.00
2023-01-10T13:59:24.400Z,4.75
2023-01-10T14:01:47.202Z,5.75
2023-01-10T14:03:53.974Z,3.25
2023-01-10T14:05:57.191Z,3.00
2023-01-10T14:08:02.552Z,3.00
2023-01-10T14:10:07.788Z,8.00
2023-01-10T14:12:20.697Z,5.00
2023-01-10T14:14:27.298Z,4.00
2023-01-10T14:16:37.273Z,2.50
2023-01-10T14:18:42.624Z,6.25
2023-01-10T14:20:46.343Z,3.00
2023-01-10T14:23:06.942Z,2.50
2023-01-10T14:25:19.373Z,5.50
2023-01-10T14:27:23.740Z,3.00
2023-01-10T14:29:30.672Z,5.25
2023-01-10T14:31:40.124Z,3.75
2023-01-10T14:33:44.693Z,5.00
2023-01-10T14:35:51.592Z,3.00
2023-01-10T14:37:57.752Z,3.00
2023-01-10T14:40:02.543Z,6.00
2023-01-10T14:42:09.811Z,8.25
2023-01-10T14:44:18.367Z,4.50
2023-01-10T14:46:24.516Z,3.50
2023-01-10T14:48:31.441Z,5.50
2023-01-10T14:50:35.061Z,4.00
2023-01-10T14:52:39.336Z,5.00
2023-01-10T14:54:42.407Z,5.25
2023-01-10T14:56:48.759Z,2.75
2023-01-10T14:58:51.570Z,2.00
2023-01-10T15:00:56.122Z,2.00
2023-01-10T15:03:03.863Z,3.00
2023-01-10T15:05:10.417Z,4.00
2023-01-10T15:07:16.967Z,3.50
2023-01-10T15:09:20.008Z,3.25
2023-01-10T15:11:23.493Z,4.25
2023-01-10T15:13:31.109Z,2.00
2023-01-10T15:15:38.199Z,4.50
2023-01-10T15:17:42.504Z,4.50
2023-01-10T15:19:46.408Z,3.75
2023-01-10T15:21:49.811Z,3.25
2023-01-10T15:23:53.097Z,7.50
2023-01-10T15:25:59.297Z,2.50
2023-01-10T15:28:03.048Z,4.00
2023-01-10T15:30:11.783Z,4.00
2023-01-10T15:32:24.477Z,3.00
2023-01-10T15:34:31.093Z,4.00
2023-01-10T15:36:34.429Z,4.50
2023-01-10T15:38:42.889Z,6.75
2023-01-10T15:40:46.453Z,3.00
2023-01-10T15:42:57.245Z,2.75
2023-01-10T15:45:27.653Z,3.50
2023-01-10T15:47:37.867Z,3.00
2023-01-10T15:49:41.128Z,5.75
2023-01-10T15:51:48.953Z,6.00
2023-01-10T15:54:03.617Z,2.00
2023-01-10T15:56:12.987Z,4.67
2023-01-10T15:58:24.054Z,5.00
2023-01-10T16:00:29.497Z,4.25
2023-01-10T16:02:34.275Z,6.00
2023-01-10T16:04:37.974Z,8.75
2023-01-10T16:06:42.606Z,6.00
2023-01-10T16:08:52.754Z,11.67
2023-01-10T16:10:58.223Z,7.75
2023-01-10T16:13:31.347Z,3.25
2023-01-10T16:15:39.176Z,12.50
2023-01-10T16:17:42.223Z,10.25
2023-01-10T16:19:45.166Z,6.00
2023-01-10T16:21:51.511Z,8.00
2023-01-10T16:23:54.495Z,4.25
2023-01-10T16:26:00.297Z,3.25
2023-01-10T16:28:04.198Z,4.25
2023-01-10T16:30:08.091Z,5.00
2023-01-10T16:32:16.151Z,4.75
2023-01-10T16:34:19.402Z,11.67
2023-01-10T16:36:22.669Z,3.75
2023-01-10T16:38:28.874Z,6.50
2023-01-10T16:40:38.245Z,5.25
2023-01-10T16:42:58.884Z,5.00
2023-01-10T16:45:02.979Z,5.50
2023-01-10T16:47:07.248Z,7.00
2023-01-10T16:49:12.172Z,5.25
2023-01-10T16:51:20.460Z,4.00
2023-01-10T16:53:23.229Z,4.67
2023-01-10T16:55:32.501Z,57.25
2023-01-10T16:57:36.833Z,62.67
2023-01-10T16:59:39.790Z,112.50
2023-01-10T17:01:46.490Z,96.25
2023-01-10T17:03:49.394Z,94.00
2023-01-10T17:05:53.707Z,92.67
2023-01-10T17:07:56.420Z,84.50
2023-01-10T17:09:59.749Z,96.75
2023-01-10T17:12:06.838Z,22.67
2023-01-10T17:14:13.227Z,5.50
2023-01-10T17:16:19.543Z,10.00
2023-01-10T17:18:24.860Z,4.00
2023-01-10T17:20:27.950Z,6.00
2023-01-10T17:22:31.980Z,5.50
2023-01-10T17:24:34.752Z,5.00
2023-01-10T17:26:37.447Z,11.25
2023-01-10T17:28:41.514Z,10.00
2023-01-10T17:30:44.770Z,9.00
2023-01-10T17:32:47.486Z,6.75
2023-01-10T17:34:50.185Z,7.00
2023-01-10T17:36:53.595Z,4.25
2023-01-10T17:38:58.240Z,8.00
2023-01-10T17:41:04.280Z,5.50
2023-01-10T17:43:07.076Z,4.50
2023-01-10T17:45:10.214Z,10.25
2023-01-10T17:47:12.859Z,8.00
2023-01-10T17:49:15.663Z,8.00
2023-01-10T17:51:18.486Z,8.00
2023-01-10T17:53:21.132Z,10.00
2023-01-10T17:55:25.268Z,6.50
2023-01-10T17:57:27.922Z,6.75
2023-01-10T17:59:30.827Z,6.00
2023-01-10T18:01:33.761Z,8.25
2023-01-10T18:03:36.561Z,9.00
2023-01-10T18:05:39.854Z,8.00
2023-01-10T18:07:42.593Z,9.00
2023-01-10T18:09:45.390Z,7.00
2023-01-10T18:11:49.521Z,10.00
2023-01-10T18:13:52.384Z,45.50
2023-01-10T18:15:55.035Z,9.33
2023-01-10T18:17:57.815Z,5.00
2023-01-10T18:20:00.757Z,6.67
2023-01-10T18:22:26.071Z,6.25
2023-01-10T18:24:28.825Z,3.00
2023-01-10T18:26:32.139Z,5.00
2023-01-10T18:28:41.697Z,5.25
2023-01-10T18:30:45.192Z,7.50
2023-01-10T18:32:48.082Z,8.00
2023-01-10T18:34:51.205Z,3.00
2023-01-10T18:36:53.878Z,2.00
2023-01-10T18:38:58.437Z,2.75
2023-01-10T18:41:01.186Z,2.00
2023-01-10T18:43:03.876Z,7.25
2023-01-10T18:45:09.481Z,4.75
2023-01-10T18:47:12.869Z,3.00
2023-01-10T18:49:17.265Z,3.75
2023-01-10T18:51:20.161Z,10.75
2023-01-10T18:53:23.177Z,6.00
2023-01-10T18:55:26.011Z,4.00
2023-01-10T18:57:29.622Z,2.00
2023-01-10T18:59:32.424Z,6.25
2023-01-10T19:01:36.429Z,5.75
2023-01-10T19:03:39.476Z,7.00
2023-01-10T19:05:42.242Z,4.50
2023-01-10T19:07:45.133Z,5.75
2023-01-10T19:09:47.955Z,6.00
2023-01-10T19:11:50.763Z,4.00
2023-01-10T19:13:54.102Z,5.00
2023-01-10T19:16:08.854Z,5.00
2023-01-10T19:18:12.928Z,4.00
2023-01-10T19:20:15.735Z,3.00
2023-01-10T19:22:19.879Z,3.50
2023-01-10T19:24:25.031Z,2.00
2023-01-10T19:26:28.093Z,2.00
2023-01-10T19:28:30.880Z,3.67
2023-01-10T19:30:36.338Z,3.00
2023-01-10T19:32:39.576Z,7.75
2023-01-10T19:34:46.232Z,5.00
2023-01-10T19:36:49.284Z,4.75
2023-01-10T19:38:55.787Z,3.50
2023-01-10T19:40:58.492Z,3.00
2023-01-10T19:43:01.897Z,2.00
2023-01-10T19:45:05.226Z,2.25
2023-01-10T19:47:07.982Z,18.25
2023-01-10T19:49:16.993Z,3.33
2023-01-10T19:51:21.056Z,9.50
2023-01-10T19:53:27.059Z,3.00
2023-01-10T19:55:30.172Z,7.25
2023-01-10T19:57:33.328Z,8.50
2023-01-10T19:59:36.517Z,5.75
2023-01-10T20:01:39.245Z,6.75
2023-01-10T20:03:42.966Z,6.00
2023-01-10T20:05:45.678Z,6.67
2023-01-10T20:07:51.820Z,3.00
2023-01-10T20:09:56.633Z,2.00
2023-01-10T20:11:59.429Z,5.00
2023-01-10T20:14:02.033Z,3.00
2023-01-10T20:16:05.261Z,2.25
2023-01-10T20:18:07.975Z,3.50
2023-01-10T20:20:11.984Z,3.00
2023-01-10T20:22:14.626Z,4.00
2023-01-10T20:24:21.413Z,2.75
2023-01-10T20:26:26.814Z,4.50
2023-01-10T20:28:30.024Z,3.00
2023-01-10T20:30:32.861Z,3.00
2023-01-10T20:32:35.652Z,5.00
2023-01-10T20:34:38.368Z,6.50
2023-01-10T20:36:41.107Z,7.00
2023-01-10T20:38:44.354Z,4.00
2023-01-10T20:40:48.322Z,4.33
2023-01-10T20:42:51.286Z,2.00
2023-01-10T20:44:53.997Z,3.00
2023-01-10T20:46:56.828Z,2.75
2023-01-10T20:49:02.617Z,3.00
2023-01-10T20:51:07.135Z,3.00
2023-01-10T20:53:09.956Z,2.00
2023-01-10T20:55:13.198Z,3.75
2023-01-10T20:57:17.270Z,6.50
2023-01-10T20:59:21.110Z,12.50
2023-01-10T21:01:35.623Z,12.67
2023-01-10T21:03:38.709Z,14.25
2023-01-10T21:05:41.484Z,16.25
2023-01-10T21:07:44.112Z,12.00
2023-01-10T21:09:46.761Z,6.50
2023-01-10T21:12:04.111Z,6.00
2023-01-10T21:14:13.027Z,4.25
2023-01-10T21:16:18.734Z,5.75
2023-01-10T21:18:24.168Z,4.50
2023-01-10T21:20:27.816Z,4.00
2023-01-10T21:22:31.802Z,6.75
2023-01-10T21:24:34.637Z,4.50
2023-01-10T21:26:37.476Z,9.75
2023-01-10T21:28:42.569Z,7.00
2023-01-10T21:30:46.871Z,4.00
2023-01-10T21:32:49.511Z,5.00
2023-01-10T21:34:52.210Z,4.00
2023-01-10T21:36:56.932Z,3.75
2023-01-10T21:39:00.198Z,8.00
2023-01-10T21:41:08.244Z,4.00
2023-01-10T21:43:09.946Z,5.50
2023-01-10T21:45:14.063Z,6.00
2023-01-10T21:47:18.241Z,29.00
2023-01-10T21:49:22.581Z,3.00
2023-01-10T21:51:25.553Z,4.00
2023-01-10T21:53:29.165Z,3.00
2023-01-10T21:55:32.748Z,3.00
